Time;durP1;ratioP1;P1;durP2;ratioP2;P2;SDS_P1;SDS_P2;PMS_P1;PMS_P2;Temp;Humidity;BMP_temperature;BMP_pressure;BME280_temperature;BME280_humidity;BME280_pressure;Samples;Min_cycle;Max_cycle;Signal;HPM_P1;HPM_P2
2021/04/02 00:00:45;;;;;;;23.20;15.32;;;;;;;22.27;17.49;94284.28;5089524;28;20044;-45
2021/04/02 00:03:16;;;;;;;26.52;15.32;;;;;;;22.57;17.64;94280.81;5116506;28;20074;-46
2021/04/02 00:05:43;;;;;;;26.42;15.32;;;;;;;22.70;17.39;94285.56;5116925;28;20078;-46
2021/04/02 00:08:10;;;;;;;22.40;15.60;;;;;;;21.07;18.98;94273.34;5116614;28;20047;-44
2021/04/02 00:10:49;;;;;;;23.80;15.80;;;;;;;21.50;19.06;94276.72;5100163;28;20434;-53
2021/04/02 00:13:20;;;;;;;21.90;15.38;;;;;;;21.96;18.66;94276.63;5095544;28;20050;-45
2021/04/02 00:15:49;;;;;;;22.50;15.40;;;;;;;22.13;18.55;94263.59;5096136;28;20428;-44
2021/04/02 00:18:19;;;;;;;20.85;15.57;;;;;;;22.08;18.20;94266.53;5096077;28;20046;-45
2021/04/02 00:20:47;;;;;;;24.65;16.42;;;;;;;21.24;19.32;94269.47;5078756;28;20044;-45
2021/04/02 00:23:14;;;;;;;22.33;14.93;;;;;;;22.01;18.70;94261.09;5075077;28;20375;-45
2021/04/02 00:25:41;;;;;;;21.35;16.00;;;;;;;20.84;20.00;94260.06;5075550;28;20367;-44
2021/04/02 00:28:09;;;;;;;23.20;16.02;;;;;;;20.10;20.68;94254.09;5075447;28;20556;-43
2021/04/02 00:30:50;;;;;;;23.27;15.82;;;;;;;20.61;20.60;94256.59;5075039;28;20048;-45
2021/04/02 00:33:19;;;;;;;22.00;15.70;;;;;;;21.57;19.51;94257.44;5074873;28;20048;-46
2021/04/02 00:35:47;;;;;;;25.58;16.08;;;;;;;20.47;20.68;94251.03;5074882;28;20060;-46
2021/04/02 00:38:14;;;;;;;24.48;16.85;;;;;;;21.65;19.19;94248.47;5074853;28;20044;-50
2021/04/02 00:40:43;;;;;;;27.50;17.73;;;;;;;21.74;19.00;94251.63;5074522;28;20466;-46
2021/04/02 00:43:11;;;;;;;25.80;16.42;;;;;;;21.23;19.79;94246.66;5079803;28;20050;-45
2021/04/02 00:45:38;;;;;;;27.13;17.58;;;;;;;20.33;20.49;94252.28;5086001;28;20443;-61
2021/04/02 00:48:07;;;;;;;30.00;18.02;;;;;;;20.40;20.57;94250.88;5073814;28;20052;-45
2021/04/02 00:50:52;;;;;;;27.70;17.20;;;;;;;20.23;21.06;94255.47;5073631;28;20055;-44
2021/04/02 00:53:22;;;;;;;25.88;17.50;;;;;;;21.33;19.65;94248.72;5074562;28;20044;-50
2021/04/02 00:55:50;;;;;;;32.10;19.60;;;;;;;19.83;21.40;94247.84;5074697;28;20375;-45
2021/04/02 00:58:20;;;;;;;32.15;21.08;;;;;;;20.45;20.44;94245.28;5074514;28;20052;-44
2021/04/02 01:00:47;;;;;;;33.03;21.40;;;;;;;21.29;19.66;94242.59;5074682;28;20076;-45
2021/04/02 01:03:14;;;;;;;34.08;23.75;;;;;;;20.56;20.24;94239.09;5074788;28;20056;-45
2021/04/02 01:05:45;;;;;;;32.58;22.33;;;;;;;21.51;19.58;94231.16;5075160;28;20056;-46
2021/04/02 01:08:35;;;;;;;29.63;22.30;;;;;;;21.38;19.71;94232.50;5056713;28;20041;-45
2021/04/02 01:11:09;;;;;;;32.67;22.85;;;;;;;21.27;19.54;94217.50;5064987;28;20044;-45
2021/04/02 01:13:42;;;;;;;34.50;23.40;;;;;;;20.13;20.93;94226.84;5067694;28;20052;-45
2021/04/02 01:16:17;;;;;;;34.33;23.67;;;;;;;20.63;20.58;94222.50;5057558;28;20395;-45
2021/04/02 01:18:59;;;;;;;34.15;24.02;;;;;;;20.74;20.55;94218.13;5074973;28;20328;-44
2021/04/02 01:21:56;;;;;;;31.55;22.80;;;;;;;20.34;20.72;94210.56;5057002;28;20363;-44
2021/04/02 01:24:23;;;;;;;35.45;22.92;;;;;;;21.43;19.64;94200.28;5052694;28;20355;-44
2021/04/02 01:27:13;;;;;;;32.45;22.27;;;;;;;20.42;20.74;94198.22;5074967;28;20036;-45
2021/04/02 01:29:54;;;;;;;36.45;23.15;;;;;;;20.29;21.18;94202.88;5057339;28;20048;-43
2021/04/02 01:32:39;;;;;;;34.63;23.60;;;;;;;20.74;20.41;94196.88;5041044;28;20048;-44
2021/04/02 01:35:18;;;;;;;28.20;20.08;;;;;;;21.19;20.18;94197.97;5074622;28;20044;-45
2021/04/02 01:37:58;;;;;;;32.15;20.38;;;;;;;20.62;20.87;94195.19;5057441;28;20048;-45
2021/04/02 01:40:28;;;;;;;30.27;21.02;;;;;;;19.52;22.13;94203.59;5073773;28;20048;-45
2021/04/02 01:43:01;;;;;;;33.70;21.15;;;;;;;19.06;22.80;94200.66;5060125;28;20740;-47
2021/04/02 01:45:30;;;;;;;30.42;20.70;;;;;;;19.17;22.62;94195.59;5077182;28;20048;-44
2021/04/02 01:48:00;;;;;;;30.48;20.35;;;;;;;19.07;22.95;94198.78;5060439;28;20044;-45
2021/04/02 01:50:27;;;;;;;34.60;22.05;;;;;;;19.20;22.94;94196.78;5069551;28;20044;-43
2021/04/02 01:52:56;;;;;;;31.52;21.10;;;;;;;19.49;22.31;94206.13;5057191;28;20040;-44
2021/04/02 01:55:23;;;;;;;32.70;21.83;;;;;;;20.27;21.37;94187.28;5074697;28;20048;-46
2021/04/02 01:57:53;;;;;;;28.23;20.38;;;;;;;19.64;21.83;94190.22;5057371;28;20052;-43
2021/04/02 02:00:30;;;;;;;29.10;20.00;;;;;;;19.23;22.48;94185.50;5044389;28;20052;-45
2021/04/02 02:03:00;;;;;;;32.65;20.45;;;;;;;20.54;21.00;94187.41;5077917;28;20056;-44
2021/04/02 02:05:32;;;;;;;28.58;20.73;;;;;;;21.04;20.33;94177.63;5060971;28;20056;-45
2021/04/02 02:08:06;;;;;;;28.08;20.30;;;;;;;19.49;22.07;94180.38;5078136;28;20052;-44
2021/04/02 02:10:38;;;;;;;29.23;20.38;;;;;;;19.54;22.36;94177.53;5044311;28;20055;-46
2021/04/02 02:13:09;;;;;;;26.30;18.65;;;;;;;20.31;21.42;94177.53;5065883;28;20040;-44
2021/04/02 02:15:43;;;;;;;30.30;20.23;;;;;;;19.75;21.99;94179.06;5063984;28;20047;-44
2021/04/02 02:18:16;;;;;;;29.27;19.38;;;;;;;19.86;22.04;94177.41;5081060;28;20052;-44
2021/04/02 02:20:44;;;;;;;33.33;20.10;;;;;;;18.86;23.47;94183.13;5080296;28;20382;-44
2021/04/02 02:23:16;;;;;;;30.90;19.73;;;;;;;19.80;21.73;94178.81;5080164;28;20048;-44
2021/04/02 02:25:43;;;;;;;27.63;18.90;;;;;;;18.07;23.93;94185.66;5079520;28;20573;-44
2021/04/02 02:28:11;;;;;;;30.95;20.15;;;;;;;20.25;21.36;94175.50;5080315;28;20058;-44
2021/04/02 02:30:39;;;;;;;28.67;17.77;;;;;;;18.69;23.32;94180.81;5080022;28;20059;-44
2021/04/02 02:33:17;;;;;;;31.58;19.98;;;;;;;18.78;23.04;94174.25;5080010;28;20044;-43
2021/04/02 02:35:56;;;;;;;28.27;17.42;;;;;;;18.04;23.97;94174.97;5060614;28;20049;-45
2021/04/02 02:38:24;;;;;;;32.15;18.38;;;;;;;18.92;23.27;94176.47;5077572;28;20439;-43
2021/04/02 02:40:53;;;;;;;29.35;17.45;;;;;;;17.70;24.62;94161.22;5054590;28;20056;-48
2021/04/02 02:43:22;;;;;;;28.42;16.95;;;;;;;18.25;23.56;94170.25;5083428;28;20039;-45
2021/04/02 02:45:49;;;;;;;28.88;16.60;;;;;;;18.51;23.44;94166.38;5097673;28;20048;-45
2021/04/02 02:48:17;;;;;;;23.23;14.85;;;;;;;18.54;23.33;94171.75;5097700;28;20044;-45
2021/04/02 02:50:50;;;;;;;23.20;14.98;;;;;;;17.86;24.15;94180.53;5097411;28;20046;-45
2021/04/02 02:53:24;;;;;;;19.80;14.60;;;;;;;18.73;23.02;94168.44;5079742;28;20358;-51
2021/04/02 02:55:52;;;;;;;20.70;15.48;;;;;;;17.77;24.20;94171.97;5079888;28;20058;-43
2021/04/02 02:58:25;;;;;;;22.80;13.90;;;;;;;18.58;23.11;94179.78;5097344;28;20066;-44
2021/04/02 03:00:53;;;;;;;21.88;13.73;;;;;;;18.47;23.20;94177.59;5063007;28;20114;-44
2021/04/02 03:03:21;;;;;;;22.67;14.02;;;;;;;18.33;23.70;94174.63;5079443;28;20052;-45
2021/04/02 03:05:54;;;;;;;22.25;14.65;;;;;;;19.24;22.33;94174.53;5079900;28;20055;-43
2021/04/02 03:08:34;;;;;;;24.65;15.30;;;;;;;20.25;21.15;94176.25;5064017;28;20051;-45
2021/04/02 03:11:04;;;;;;;28.92;15.98;;;;;;;18.14;23.75;94179.78;5096005;28;20048;-45
2021/04/02 03:13:33;;;;;;;28.90;17.35;;;;;;;17.54;24.76;94169.03;5058994;28;20047;-44
2021/04/02 03:16:00;;;;;;;26.50;17.85;;;;;;;18.54;23.28;94176.28;5075926;28;20052;-47
2021/04/02 03:18:30;;;;;;;27.23;16.45;;;;;;;16.47;27.17;94170.25;5075815;28;20052;-45
2021/04/02 03:21:00;;;;;;;27.58;17.60;;;;;;;20.31;21.97;94169.56;5069474;28;20056;-48
2021/04/02 03:23:29;;;;;;;30.77;18.63;;;;;;;17.71;24.85;94168.03;5042541;28;20391;-44
2021/04/02 03:25:57;;;;;;;35.38;20.58;;;;;;;18.69;23.64;94170.22;5059199;28;20052;-44
2021/04/02 03:28:25;;;;;;;27.63;17.98;;;;;;;18.99;23.35;94166.03;5059147;28;20045;-44
2021/04/02 03:30:56;;;;;;;31.33;18.83;;;;;;;17.72;24.99;94163.53;5076373;28;20056;-52
2021/04/02 03:33:32;;;;;;;36.08;20.25;;;;;;;17.05;25.33;94157.78;5058865;28;20044;-56
2021/04/02 03:36:16;;;;;;;31.13;20.08;;;;;;;19.90;22.24;94164.97;5058715;28;20052;-45
2021/04/02 03:38:46;;;;;;;32.05;20.13;;;;;;;17.92;24.48;94156.50;5058810;28;20052;-44
2021/04/02 03:41:30;;;;;;;31.98;19.60;;;;;;;18.02;24.37;94156.81;5042952;28;20055;-51
2021/04/02 03:44:00;;;;;;;30.38;18.92;;;;;;;18.92;23.10;94152.63;5054267;28;20115;-45
2021/04/02 03:46:29;;;;;;;26.98;17.83;;;;;;;17.68;24.41;94147.53;5062305;28;20055;-45
2021/04/02 03:48:59;;;;;;;31.98;19.20;;;;;;;18.93;23.11;94140.91;5078382;28;20047;-44
2021/04/02 03:51:29;;;;;;;26.85;18.85;;;;;;;19.21;22.52;94147.97;5078420;28;20044;-46
2021/04/02 03:54:03;;;;;;;30.35;18.80;;;;;;;18.40;23.77;94145.69;5078357;28;20409;-44
2021/04/02 03:56:35;;;;;;;31.45;18.65;;;;;;;18.21;24.33;94153.50;5079166;28;20058;-50
2021/04/02 03:59:05;;;;;;;27.83;18.30;;;;;;;18.63;23.58;94142.47;5061986;28;20048;-45
2021/04/02 04:01:41;;;;;;;27.45;17.92;;;;;;;17.14;25.63;94145.22;5062328;28;20454;-45
2021/04/02 04:04:09;;;;;;;;;;;;;;;19.29;23.28;94141.72;5078962;28;20126;-44
2021/04/02 04:06:41;;;;;;;29.95;18.83;;;;;;;18.11;24.64;94146.06;5062597;28;19912;-44
2021/04/02 04:09:14;;;;;;;29.00;19.05;;;;;;;17.78;24.99;94146.31;5062158;28;20473;-43
2021/04/02 04:11:44;;;;;;;31.25;20.13;;;;;;;17.71;24.94;94151.41;5077964;28;20489;-45
2021/04/02 04:14:16;;;;;;;28.65;18.83;;;;;;;18.93;23.31;94148.88;5069753;28;20370;-44
2021/04/02 04:16:47;;;;;;;24.50;15.90;;;;;;;21.67;22.43;94150.44;5092747;28;20371;-44
2021/04/02 04:19:16;;;;;;;23.63;15.05;;;;;;;24.13;19.87;94150.56;5058355;28;20052;-44
2021/04/02 04:21:48;;;;;;;20.88;14.93;;;;;;;25.25;18.37;94145.03;5042562;28;20040;-44
2021/04/02 04:24:24;;;;;;;22.27;15.85;;;;;;;26.82;17.27;94155.91;5069485;28;20052;-44
2021/04/02 04:26:53;;;;;;;25.98;16.25;;;;;;;26.98;16.17;94154.22;5083679;28;20051;-56
2021/04/02 04:29:28;;;;;;;26.00;16.83;;;;;;;28.09;15.09;94156.59;5057570;28;20048;-47
2021/04/02 04:31:57;;;;;;;22.58;16.73;;;;;;;29.32;14.08;94141.81;5057517;28;20055;-42
2021/04/02 04:34:25;;;;;;;22.35;16.58;;;;;;;30.05;13.55;94157.06;5075171;28;20040;-51
2021/04/02 04:36:54;;;;;;;21.02;17.02;;;;;;;30.56;13.24;94152.13;5057707;28;20048;-54
2021/04/02 04:39:23;;;;;;;28.50;19.10;;;;;;;30.90;12.82;94142.91;5058673;28;20048;-52
2021/04/02 04:41:52;;;;;;;30.30;22.40;;;;;;;28.56;14.16;94132.59;5087463;28;20045;-55
2021/04/02 04:44:21;;;;;;;32.92;24.63;;;;;;;25.59;16.30;94130.03;5057134;28;20060;-48
2021/04/02 04:46:48;;;;;;;36.88;24.42;;;;;;;21.28;20.78;94132.06;5075255;28;20355;-47
2021/04/02 04:49:15;;;;;;;35.17;24.70;;;;;;;20.28;22.00;94138.38;5057795;28;20052;-47
2021/04/02 04:51:43;;;;;;;37.33;24.05;;;;;;;19.70;22.74;94135.78;5057320;28;20051;-46
2021/04/02 04:54:11;;;;;;;40.17;23.40;;;;;;;20.01;23.10;94134.09;5068508;28;20044;-47
2021/04/02 04:56:40;;;;;;;38.20;23.08;;;;;;;19.50;23.65;94136.84;5072518;28;20048;-45
2021/04/02 04:59:10;;;;;;;38.38;24.23;;;;;;;18.07;26.53;94139.91;5074150;28;20055;-46
2021/04/02 05:01:45;;;;;;;42.20;22.92;;;;;;;17.76;26.89;94143.25;5074604;28;20375;-47
2021/04/02 05:04:13;;;;;;;38.10;23.85;;;;;;;18.37;26.81;94148.25;5074656;28;20055;-49
2021/04/02 05:06:41;;;;;;;50.95;27.95;;;;;;;17.63;26.29;94154.91;5057566;28;20079;-45
2021/04/02 05:09:08;;;;;;;43.70;25.55;;;;;;;17.97;25.75;94148.34;5075045;28;20048;-47
2021/04/02 05:11:38;;;;;;;46.55;25.55;;;;;;;16.81;26.97;94152.50;5057226;28;20435;-46
2021/04/02 05:14:07;;;;;;;47.45;27.75;;;;;;;17.57;26.24;94157.03;5070184;28;20040;-46
2021/04/02 05:16:35;;;;;;;46.50;26.30;;;;;;;18.23;25.93;94150.53;5077471;28;20379;-45
2021/04/02 05:19:02;;;;;;;41.08;22.60;;;;;;;18.08;25.59;94155.44;5077736;28;20051;-46
2021/04/02 05:21:29;;;;;;;30.83;19.70;;;;;;;20.19;21.53;94151.13;5077620;28;20048;-52
2021/04/02 05:23:56;;;;;;;37.08;20.88;;;;;;;18.91;23.69;94143.16;5094992;28;20048;-48
2021/04/02 05:26:23;;;;;;;31.70;19.38;;;;;;;18.88;23.67;94156.31;5094815;28;20473;-46
2021/04/02 05:28:50;;;;;;;46.47;21.92;;;;;;;18.32;24.10;94159.06;5077508;28;20043;-46
2021/04/02 05:31:18;;;;;;;27.70;17.40;;;;;;;18.22;24.50;94159.59;5094980;28;20083;-47
2021/04/02 05:33:45;;;;;;;32.33;19.73;;;;;;;17.35;25.26;94160.16;5096600;28;20047;-47
2021/04/02 05:36:12;;;;;;;34.45;19.73;;;;;;;17.74;25.25;94154.16;5073654;28;20044;-47
2021/04/02 05:38:39;;;;;;;42.13;20.48;;;;;;;17.93;24.93;94148.22;5078759;28;20056;-47
2021/04/02 05:41:09;;;;;;;33.92;20.52;;;;;;;17.90;25.59;94153.41;5078751;28;20056;-47
2021/04/02 05:43:38;;;;;;;28.42;18.67;;;;;;;18.52;24.60;94150.13;5071428;28;20052;-47
2021/04/02 05:46:05;;;;;;;31.08;20.23;;;;;;;19.17;23.79;94149.78;5078831;28;20044;-48
2021/04/02 05:48:34;;;;;;;34.50;20.15;;;;;;;18.83;24.68;94152.03;5063704;28;20059;-50
2021/04/02 05:51:02;;;;;;;36.72;20.88;;;;;;;20.23;22.52;94151.97;5092923;28;20055;-46
2021/04/02 05:53:30;;;;;;;38.20;20.85;;;;;;;20.05;23.26;94142.16;5075381;28;20044;-48
2021/04/02 05:56:02;;;;;;;37.95;21.50;;;;;;;20.15;22.88;94134.38;5098905;28;20052;-48
2021/04/02 05:58:30;;;;;;;43.53;22.05;;;;;;;21.17;21.37;94141.75;5098653;28;20043;-47
2021/04/02 06:00:58;;;;;;;36.08;21.25;;;;;;;19.85;22.88;94138.75;5081341;28;20048;-49
2021/04/02 06:03:25;;;;;;;39.40;22.27;;;;;;;20.86;22.69;94140.94;5077730;28;20454;-46
2021/04/02 06:05:52;;;;;;;33.35;21.65;;;;;;;21.33;21.21;94134.41;5060797;28;20055;-46
2021/04/02 06:08:20;;;;;;;35.50;21.85;;;;;;;20.80;21.91;94130.94;5063942;28;20349;-46
2021/04/02 06:10:47;;;;;;;37.65;22.63;;;;;;;20.68;21.73;94134.56;5098608;28;20044;-47
2021/04/02 06:13:14;;;;;;;37.40;23.15;;;;;;;21.34;21.39;94143.16;5085356;28;20807;-47
2021/04/02 06:15:44;;;;;;;37.03;23.63;;;;;;;21.76;21.47;94142.94;5067538;28;20426;-49
2021/04/02 06:18:14;;;;;;;40.03;24.40;;;;;;;21.46;20.76;94141.06;5096814;28;20370;-53
2021/04/02 06:20:45;;;;;;;45.17;25.15;;;;;;;21.49;21.26;94145.66;5098401;28;20044;-48
2021/04/02 06:23:14;;;;;;;36.75;24.90;;;;;;;22.01;20.78;94153.88;5066925;23;20049;-47
2021/04/02 06:25:53;;;;;;;38.58;23.40;;;;;;;23.80;19.41;94151.59;5057447;28;20466;-48
2021/04/02 06:28:32;;;;;;;32.97;24.73;;;;;;;22.96;19.76;94158.66;5057628;28;20048;-50
2021/04/02 06:31:09;;;;;;;42.58;27.35;;;;;;;23.76;19.10;94162.25;5057559;28;20057;-48
2021/04/02 06:33:40;;;;;;;41.25;26.17;;;;;;;25.94;16.53;94149.81;5057459;28;20041;-50
2021/04/02 06:36:23;;;;;;;41.92;28.88;;;;;;;25.62;16.33;94148.00;5077779;28;20386;-47
2021/04/02 06:38:51;;;;;;;44.15;27.17;;;;;;;23.69;18.42;94151.53;5077595;28;20053;-51
2021/04/02 06:41:19;;;;;;;35.80;26.00;;;;;;;23.77;18.20;94137.09;5077281;28;20053;-51
2021/04/02 06:43:48;;;;;;;32.38;24.95;;;;;;;25.03;16.83;94139.69;5065077;28;20045;-48
2021/04/02 06:46:20;;;;;;;38.05;24.02;;;;;;;24.52;17.26;94143.44;5056478;28;20052;-48
2021/04/02 06:48:49;;;;;;;27.35;20.65;;;;;;;24.60;16.67;94139.63;5057403;28;20044;-47
2021/04/02 06:51:37;;;;;;;24.42;18.33;;;;;;;25.00;16.49;94139.69;5057110;28;20420;-51
2021/04/02 06:54:05;;;;;;;22.75;16.00;;;;;;;28.11;13.35;94140.09;5075250;28;20071;-48
2021/04/02 06:56:33;;;;;;;23.88;16.25;;;;;;;24.93;16.86;94140.41;5076504;28;20052;-50
2021/04/02 06:59:01;;;;;;;23.67;18.10;;;;;;;26.47;14.96;94140.78;5076645;28;20055;-48
2021/04/02 07:01:31;;;;;;;22.27;16.95;;;;;;;27.01;15.00;94136.59;5076749;28;20052;-55
2021/04/02 07:03:59;;;;;;;26.92;16.95;;;;;;;27.53;14.73;94134.56;5076728;28;20044;-49
2021/04/02 07:06:30;;;;;;;25.95;17.50;;;;;;;26.76;15.51;94136.75;5076997;28;20053;-50
2021/04/02 07:08:59;;;;;;;27.02;16.40;;;;;;;26.64;15.46;94134.56;5059497;28;20059;-48
2021/04/02 07:11:29;;;;;;;20.77;15.38;;;;;;;27.90;14.45;94141.88;5069584;28;20056;-48
2021/04/02 07:13:56;;;;;;;21.70;15.85;;;;;;;25.92;16.94;94133.38;5055414;28;20048;-48
2021/04/02 07:16:24;;;;;;;24.08;16.42;;;;;;;27.86;15.05;94145.78;5039517;28;20467;-53
2021/04/02 07:18:51;;;;;;;23.73;17.55;;;;;;;25.87;16.50;94136.47;5056667;28;20372;-47
2021/04/02 07:21:19;;;;;;;25.13;17.48;;;;;;;27.21;15.30;94144.88;5037529;28;20068;-50
2021/04/02 07:23:47;;;;;;;24.98;17.25;;;;;;;27.56;14.88;94133.78;5056286;28;20057;-48
2021/04/02 07:26:14;;;;;;;23.23;17.23;;;;;;;26.53;16.07;94139.22;5056278;28;20056;-53
2021/04/02 07:28:44;;;;;;;26.73;16.80;;;;;;;27.91;13.98;94137.28;5056568;28;20375;-50
2021/04/02 07:31:13;;;;;;;23.83;16.85;;;;;;;27.91;14.74;94137.28;5038826;28;20478;-50
2021/04/02 07:33:44;;;;;;;26.23;17.77;;;;;;;29.43;13.23;94133.56;5056298;28;20056;-48
2021/04/02 07:36:14;;;;;;;23.10;16.58;;;;;;;26.87;15.64;94137.47;5038817;28;20048;-47
2021/04/02 07:38:48;;;;;;;25.75;17.73;;;;;;;28.63;13.76;94137.13;5056424;28;20057;-48
2021/04/02 07:41:17;;;;;;;26.40;17.17;;;;;;;27.74;14.93;94132.84;5056084;28;20364;-48
2021/04/02 07:43:56;;;;;;;27.48;17.95;;;;;;;28.17;14.87;94146.56;5055888;28;20132;-50
2021/04/02 07:46:28;;;;;;;29.58;18.38;;;;;;;27.75;15.38;94129.78;5056297;28;20045;-50
2021/04/02 07:49:01;;;;;;;29.20;18.80;;;;;;;27.25;15.24;94134.84;5056173;28;20049;-52
2021/04/02 07:51:46;;;;;;;23.10;18.52;;;;;;;27.70;15.73;94126.78;5039266;28;20052;-50
2021/04/02 07:54:22;;;;;;;25.40;18.48;;;;;;;28.51;15.12;94130.38;5066349;28;20358;-52
2021/04/02 07:56:51;;;;;;;29.08;19.45;;;;;;;28.74;14.88;94133.09;5055599;28;20079;-48
2021/04/02 07:59:18;;;;;;;26.27;19.92;;;;;;;29.41;14.45;94131.28;5038365;28;20053;-54
2021/04/02 08:01:59;;;;;;;26.30;18.95;;;;;;;29.20;14.46;94130.88;5055883;28;20053;-47
2021/04/02 08:04:56;;;;;;;29.23;18.80;;;;;;;28.75;15.02;94133.88;5055583;28;20470;-59
2021/04/02 08:07:40;;;;;;;27.60;17.98;;;;;;;27.39;17.15;94128.59;5055807;28;20052;-53
2021/04/02 08:10:20;;;;;;;27.83;16.85;;;;;;;27.99;16.68;94113.75;5055820;28;20067;-48
2021/04/02 08:12:47;;;;;;;22.85;16.67;;;;;;;27.94;16.84;94117.66;5055658;28;20040;-54
2021/04/02 08:15:16;;;;;;;23.33;15.70;;;;;;;30.90;13.26;94115.94;5037753;28;20383;-50
2021/04/02 08:17:49;;;;;;;25.20;16.77;;;;;;;27.77;16.62;94115.94;5056002;28;20044;-53
2021/04/02 08:20:21;;;;;;;22.90;16.23;;;;;;;28.37;16.58;94103.72;5055566;28;20056;-53
2021/04/02 08:22:49;;;;;;;20.27;14.98;;;;;;;31.24;13.26;94121.69;5055251;28;20475;-48
2021/04/02 08:25:18;;;;;;;21.13;15.70;;;;;;;28.94;15.58;94110.94;5055021;28;20052;-47
2021/04/02 08:27:46;;;;;;;24.77;15.13;;;;;;;28.91;15.92;94109.06;5055541;28;20048;-49
2021/04/02 08:30:16;;;;;;;20.50;14.85;;;;;;;29.37;15.43;94108.25;5055563;28;20376;-50
2021/04/02 08:32:49;;;;;;;25.17;14.95;;;;;;;29.19;16.06;94107.84;5055315;28;20447;-50
2021/04/02 08:35:19;;;;;;;20.50;13.98;;;;;;;29.38;15.81;94102.47;5055034;28;20052;-49
2021/04/02 08:37:58;;;;;;;19.30;13.45;;;;;;;29.98;15.56;94099.81;5055409;28;20045;-48
2021/04/02 08:40:26;;;;;;;19.15;12.45;;;;;;;31.62;14.06;94113.00;5055400;28;20456;-48
2021/04/02 08:43:01;;;;;;;16.63;12.10;;;;;;;30.51;15.06;94106.78;5055145;28;20079;-49
2021/04/02 08:45:39;;;;;;;12.95;9.60;;;;;;;31.24;14.10;94102.78;5054818;28;20041;-48
2021/04/02 08:48:07;;;;;;;25.70;11.50;;;;;;;31.44;13.88;94108.06;5055111;28;20459;-48
2021/04/02 08:50:35;;;;;;;18.45;10.13;;;;;;;31.24;14.23;94102.78;5055140;28;20053;-50
2021/04/02 08:53:09;;;;;;;14.48;9.05;;;;;;;31.46;14.12;94096.81;5054346;28;20071;-49
2021/04/02 08:55:42;;;;;;;13.35;8.27;;;;;;;30.80;15.18;94095.38;5055201;28;20040;-48
2021/04/02 08:58:09;;;;;;;12.32;7.53;;;;;;;32.35;13.69;94092.44;5055106;28;20051;-49
2021/04/02 09:00:41;;;;;;;9.57;7.55;;;;;;;32.53;13.26;94099.25;5055130;28;20353;-50
2021/04/02 09:03:08;;;;;;;12.20;7.18;;;;;;;31.71;13.53;94098.84;5054620;28;20040;-48
2021/04/02 09:05:36;;;;;;;10.88;7.10;;;;;;;31.25;13.88;94109.72;5054858;28;20053;-57
2021/04/02 09:08:04;;;;;;;13.75;6.32;;;;;;;33.36;12.21;94098.97;5037930;28;20045;-50
2021/04/02 09:10:31;;;;;;;10.18;6.10;;;;;;;31.29;14.16;94094.16;5059095;28;20060;-48
2021/04/02 09:12:58;;;;;;;10.32;5.97;;;;;;;32.36;13.25;94096.66;5059183;28;20047;-47
2021/04/02 09:15:35;;;;;;;9.98;5.28;;;;;;;32.07;13.15;94104.06;5041722;28;20049;-45
2021/04/02 09:18:19;;;;;;;28.63;6.85;;;;;;;32.09;13.33;94098.97;5059152;28;20041;-48
2021/04/02 09:20:47;;;;;;;16.33;5.20;;;;;;;32.23;12.69;94109.38;5041502;28;20064;-48
2021/04/02 09:23:14;;;;;;;11.30;5.40;;;;;;;32.02;13.27;94104.59;5058304;28;20057;-46
2021/04/02 09:25:48;;;;;;;9.10;5.38;;;;;;;30.75;14.20;94103.97;5041179;28;20068;-51
2021/04/02 09:28:21;;;;;;;9.02;4.97;;;;;;;34.22;11.89;94097.44;5058241;28;20048;-49
2021/04/02 09:30:49;;;;;;;6.28;4.65;;;;;;;35.05;11.07;94095.81;5041070;28;20060;-49
2021/04/02 09:33:18;;;;;;;7.65;5.63;;;;;;;33.84;12.28;94099.66;5058378;28;20045;-50
2021/04/02 09:35:46;;;;;;;9.48;6.40;;;;;;;33.63;12.07;94093.75;5058639;28;20045;-48
2021/04/02 09:38:13;;;;;;;6.57;5.10;;;;;;;33.87;12.16;94096.06;5058858;28;20071;-48
2021/04/02 09:40:44;;;;;;;8.07;5.25;;;;;;;32.63;12.62;94109.00;5058461;28;20055;-47
2021/04/02 09:43:11;;;;;;;6.10;4.75;;;;;;;33.29;11.91;94104.56;5058551;28;20041;-50
2021/04/02 09:45:39;;;;;;;11.48;5.22;;;;;;;32.76;12.85;94102.38;5058470;28;20053;-49
2021/04/02 09:48:19;;;;;;;5.53;4.70;;;;;;;32.77;12.72;94097.72;5051443;28;20041;-48
2021/04/02 09:50:47;;;;;;;7.40;5.43;;;;;;;32.80;12.47;94102.31;5058283;28;20049;-50
2021/04/02 09:53:15;;;;;;;5.85;5.07;;;;;;;32.04;13.36;94092.16;5057728;28;20486;-47
2021/04/02 09:55:42;;;;;;;9.07;5.25;;;;;;;32.04;13.28;94102.22;5058259;28;20489;-48
2021/04/02 09:58:09;;;;;;;6.93;5.30;;;;;;;31.78;13.05;94107.56;5058412;28;20052;-49
2021/04/02 10:00:36;;;;;;;7.80;5.88;;;;;;;32.49;13.00;94094.69;5058288;28;20055;-50
2021/04/02 10:03:13;;;;;;;6.63;5.53;;;;;;;33.04;12.39;94106.16;5057241;28;20044;-46
2021/04/02 10:05:40;;;;;;;9.50;6.55;;;;;;;32.74;13.12;94117.53;5057896;28;20067;-51
2021/04/02 10:08:08;;;;;;;14.18;6.00;;;;;;;32.24;13.77;94119.00;5058240;28;20083;-50
2021/04/02 10:10:35;;;;;;;19.20;6.05;;;;;;;31.37;14.49;94118.28;5058168;28;20363;-51
2021/04/02 10:13:02;;;;;;;26.65;7.00;;;;;;;32.44;13.89;94119.59;5057599;28;20068;-52
2021/04/02 10:15:29;;;;;;;19.67;6.53;;;;;;;31.03;14.81;94122.19;5057526;28;20602;-49
2021/04/02 10:17:56;;;;;;;18.35;5.82;;;;;;;32.41;13.65;94131.28;5057926;28;20052;-46
2021/04/02 10:20:24;;;;;;;27.92;7.25;;;;;;;31.52;14.45;94144.50;5057577;28;20052;-50
2021/04/02 10:22:51;;;;;;;19.65;6.57;;;;;;;31.21;15.20;94129.84;5057372;28;20336;-46
2021/04/02 10:25:18;;;;;;;22.08;7.55;;;;;;;30.83;15.73;94148.50;5057372;28;20459;-48
2021/04/02 10:27:45;;;;;;;16.90;6.63;;;;;;;30.28;16.09;94141.97;5057970;28;20044;-47
2021/04/02 10:30:13;;;;;;;11.85;7.03;;;;;;;29.12;17.33;94157.13;5057649;28;20065;-51
2021/04/02 10:32:40;;;;;;;17.38;7.22;;;;;;;29.12;17.44;94167.91;5057678;28;20051;-51
2021/04/02 10:35:08;;;;;;;11.85;6.05;;;;;;;31.16;15.74;94158.13;5057163;28;20041;-48
2021/04/02 10:37:35;;;;;;;8.88;6.20;;;;;;;29.39;17.42;94168.59;5057711;28;20443;-50
2021/04/02 10:40:02;;;;;;;11.43;6.47;;;;;;;29.40;17.73;94167.41;5057294;28;20467;-48
2021/04/02 10:42:29;;;;;;;10.63;6.35;;;;;;;28.35;19.76;94178.59;5056652;28;20040;-48
2021/04/02 10:44:57;;;;;;;10.48;6.57;;;;;;;28.91;19.59;94187.84;5057109;28;20057;-47
2021/04/02 10:47:24;;;;;;;9.10;6.82;;;;;;;27.91;21.04;94185.63;5057184;28;20451;-46
2021/04/02 10:49:51;;;;;;;7.57;6.30;;;;;;;28.42;20.94;94190.03;5057331;28;20064;-50
2021/04/02 10:52:18;;;;;;;7.50;6.70;;;;;;;29.02;20.00;94187.66;5056743;28;20056;-50
2021/04/02 10:54:45;;;;;;;7.47;6.18;;;;;;;27.90;21.76;94186.78;5056695;28;20056;-46
2021/04/02 10:57:14;;;;;;;8.10;6.13;;;;;;;28.68;21.14;94193.16;5073693;28;20366;-47
2021/04/02 10:59:41;;;;;;;10.45;6.53;;;;;;;27.70;22.77;94185.84;5077337;28;20052;-47
2021/04/02 11:02:09;;;;;;;10.63;7.45;;;;;;;28.51;22.44;94184.16;5077067;28;20050;-47
2021/04/02 11:04:40;;;;;;;8.52;6.82;;;;;;;29.12;21.70;94165.19;5077056;28;20060;-48
2021/04/02 11:07:07;;;;;;;9.35;6.55;;;;;;;28.61;22.36;94161.72;5076729;28;20044;-47
2021/04/02 11:09:35;;;;;;;10.93;6.47;;;;;;;28.78;22.21;94147.25;5056909;28;20408;-47
2021/04/02 11:12:02;;;;;;;10.90;7.72;;;;;;;28.45;23.06;94148.13;5056745;28;20466;-46
2021/04/02 11:14:29;;;;;;;12.57;7.80;;;;;;;28.28;23.57;94133.75;5068127;28;20075;-49
2021/04/02 11:16:57;;;;;;;9.45;7.38;;;;;;;28.75;23.21;94126.56;5070499;28;20052;-46
2021/04/02 11:19:24;;;;;;;8.35;6.65;;;;;;;27.48;24.98;94140.38;5056634;28;20045;-47
2021/04/02 11:21:51;;;;;;;8.48;6.70;;;;;;;28.06;24.37;94127.88;5061208;28;20087;-46
2021/04/02 11:24:18;;;;;;;9.45;6.28;;;;;;;28.69;23.52;94116.69;5076292;28;20047;-47
2021/04/02 11:26:46;;;;;;;7.00;5.57;;;;;;;28.90;23.29;94119.06;5060856;28;20049;-46
2021/04/02 11:29:13;;;;;;;8.93;6.03;;;;;;;28.80;23.78;94109.94;5056580;28;20052;-52
2021/04/02 11:31:40;;;;;;;6.65;5.88;;;;;;;28.32;24.65;94112.97;5054872;28;20456;-48
2021/04/02 11:34:07;;;;;;;6.20;5.57;;;;;;;29.68;22.99;94106.19;5056291;28;20065;-49